createdAt,value
2017-11-18T00:00:03.884Z,76.01
2017-11-18T00:01:03.859Z,76.10
2017-11-18T00:02:03.839Z,75.81
2017-11-18T00:03:03.816Z,75.91
2017-11-18T00:04:03.793Z,76.67
2017-11-18T00:05:03.779Z,76.76
2017-11-18T00:06:03.764Z,77.05
2017-11-18T00:07:03.732Z,76.76
2017-11-18T00:08:03.715Z,76.57
2017-11-18T00:09:03.694Z,77.71
2017-11-18T00:10:03.677Z,78.19
2017-11-18T00:11:03.651Z,76.95
2017-11-18T00:12:03.632Z,76.57
2017-11-18T00:13:03.609Z,77.33
2017-11-18T00:14:03.591Z,77.14
2017-11-18T00:15:03.575Z,77.52
2017-11-18T00:16:03.552Z,77.33
2017-11-18T00:17:03.537Z,77.33
2017-11-18T00:18:03.512Z,76.95
2017-11-18T00:19:03.491Z,77.05
2017-11-18T00:20:03.483Z,77.62
2017-11-18T00:21:03.449Z,77.96
2017-11-18T00:22:03.435Z,78.24
2017-11-18T00:23:03.414Z,79.04
2017-11-18T00:24:03.396Z,78.85
2017-11-18T00:25:03.364Z,78.28
2017-11-18T00:26:03.345Z,78.19
2017-11-18T00:27:03.321Z,77.71
2017-11-18T00:28:03.300Z,78.47
2017-11-18T00:29:03.288Z,77.81
2017-11-18T00:30:03.272Z,77.52
2017-11-18T00:31:03.245Z,77.90
2017-11-18T00:32:03.241Z,77.86
2017-11-18T00:33:03.196Z,78.81
2017-11-18T00:34:03.184Z,78.81
2017-11-18T00:35:03.170Z,78.62
2017-11-18T00:36:03.151Z,79.04
2017-11-18T00:37:03.124Z,78.81
2017-11-18T00:38:03.107Z,78.62
2017-11-18T00:39:03.075Z,78.95
2017-11-18T00:40:03.062Z,79.00
2017-11-18T00:41:03.036Z,78.66
2017-11-18T00:42:03.016Z,79.00
2017-11-18T00:43:02.994Z,79.14
2017-11-18T00:44:02.976Z,79.00
2017-11-18T00:45:02.953Z,78.95
2017-11-18T00:46:02.944Z,78.75
2017-11-18T00:47:02.917Z,78.81
2017-11-18T00:48:02.889Z,79.38
2017-11-18T00:49:02.874Z,79.28
2017-11-18T00:50:02.852Z,79.19
2017-11-18T00:51:02.827Z,79.38
2017-11-18T00:52:02.813Z,79.14
2017-11-18T00:53:02.784Z,79.04
2017-11-18T00:54:02.765Z,78.95
2017-11-18T00:55:02.742Z,78.85
2017-11-18T00:56:02.724Z,79.04
2017-11-18T00:57:02.704Z,78.38
2017-11-18T00:58:02.680Z,78.28
2017-11-18T00:59:02.667Z,78.09
2017-11-18T01:00:02.644Z,78.19
2017-11-18T01:01:02.626Z,78.28
2017-11-18T01:02:02.604Z,77.71
2017-11-18T01:03:02.595Z,77.43
2017-11-18T01:04:02.558Z,77.24
2017-11-18T01:05:02.556Z,77.24
2017-11-18T01:06:02.524Z,78.19
2017-11-18T01:07:02.494Z,78.91
2017-11-18T01:08:02.474Z,79.28
2017-11-18T01:09:02.459Z,79.95
2017-11-18T01:10:02.442Z,80.14
2017-11-18T01:11:02.425Z,79.57
2017-11-18T01:12:02.395Z,80.24
2017-11-18T01:13:02.374Z,80.04
2017-11-18T01:14:02.358Z,80.04
2017-11-18T01:15:02.337Z,80.14
2017-11-18T01:16:02.316Z,79.95
2017-11-18T01:17:02.307Z,79.00
2017-11-18T01:18:02.286Z,79.19
2017-11-18T01:19:02.252Z,79.57
2017-11-18T01:20:02.246Z,79.19
2017-11-18T01:21:02.233Z,79.38
2017-11-18T01:22:02.201Z,80.14
2017-11-18T01:23:02.370Z,79.76
2017-11-18T01:24:02.175Z,80.24
2017-11-18T01:25:02.148Z,80.71
2017-11-18T01:26:02.100Z,80.80
2017-11-18T01:27:02.083Z,80.80
2017-11-18T01:28:02.066Z,80.33
2017-11-18T01:29:02.066Z,80.80
2017-11-18T01:30:02.036Z,80.24
2017-11-18T01:31:02.014Z,80.90
2017-11-18T01:32:01.982Z,80.52
2017-11-18T01:33:01.974Z,81.47
2017-11-18T01:34:01.937Z,81.37
2017-11-18T01:35:01.912Z,81.47
2017-11-18T01:36:01.891Z,80.52
2017-11-18T01:37:01.873Z,80.99
2017-11-18T01:38:01.851Z,80.52
2017-11-18T01:39:01.842Z,81.27
2017-11-18T01:40:01.824Z,80.90
2017-11-18T01:41:01.786Z,80.62
2017-11-18T01:42:01.773Z,80.14
2017-11-18T01:43:01.750Z,80.33
2017-11-18T01:44:01.730Z,80.24
2017-11-18T01:45:01.709Z,79.47
2017-11-18T01:46:01.680Z,79.66
2017-11-18T01:47:01.665Z,80.04
2017-11-18T01:48:01.749Z,79.57
2017-11-18T01:49:01.616Z,79.38
2017-11-18T01:50:01.606Z,79.99
2017-11-18T01:51:01.573Z,79.33
2017-11-18T01:52:01.654Z,79.23
2017-11-18T01:53:01.532Z,79.33
2017-11-18T01:54:01.551Z,79.42
2017-11-18T01:55:01.492Z,78.95
2017-11-18T01:56:01.486Z,78.81
2017-11-18T01:57:01.456Z,79.14
2017-11-18T01:58:01.484Z,79.14
2017-11-18T01:59:01.407Z,79.47
2017-11-18T02:00:01.441Z,79.38
2017-11-18T02:01:01.365Z,79.47
2017-11-18T02:02:01.401Z,79.28
2017-11-18T02:03:01.324Z,79.66
2017-11-18T02:04:01.302Z,80.04
2017-11-18T02:05:01.282Z,80.24
2017-11-18T02:06:01.264Z,79.47
2017-11-18T02:07:01.241Z,80.04
2017-11-18T02:08:01.225Z,80.24
2017-11-18T02:09:01.198Z,79.80
2017-11-18T02:10:01.178Z,79.28
2017-11-18T02:11:01.161Z,78.62
2017-11-18T02:12:01.144Z,78.66
2017-11-18T02:13:01.113Z,79.00
2017-11-18T02:14:01.147Z,78.09
2017-11-18T02:15:01.076Z,79.00
2017-11-18T02:16:01.103Z,78.91
2017-11-18T02:17:01.033Z,79.57
2017-11-18T02:18:01.167Z,80.24
2017-11-18T02:19:00.988Z,79.95
2017-11-18T02:20:01.037Z,79.66
2017-11-18T02:21:00.947Z,79.76
2017-11-18T02:22:00.976Z,80.24
2017-11-18T02:23:00.904Z,79.47
2017-11-18T02:24:00.886Z,79.00
2017-11-18T02:25:00.861Z,79.66
2017-11-18T02:26:00.874Z,79.14
2017-11-18T02:27:00.821Z,78.85
2017-11-18T02:28:00.797Z,78.47
2017-11-18T02:29:00.776Z,79.04
2017-11-18T02:30:00.755Z,78.75
2017-11-18T02:31:00.735Z,78.28
2017-11-18T02:32:00.717Z,77.90
2017-11-18T02:33:00.699Z,78.19
2017-11-18T02:34:00.675Z,78.09
2017-11-18T02:35:00.665Z,77.81
2017-11-18T02:36:00.631Z,78.00
2017-11-18T02:37:00.616Z,78.81
2017-11-18T02:38:00.593Z,78.81
2017-11-18T02:39:00.567Z,78.85
2017-11-18T02:40:00.545Z,78.28
2017-11-18T02:41:00.541Z,79.04
2017-11-18T02:42:00.528Z,78.28
2017-11-18T02:43:00.481Z,78.00
2017-11-18T02:44:00.471Z,77.71
2017-11-18T02:45:00.442Z,78.00
2017-11-18T02:46:00.421Z,78.19
2017-11-18T02:47:00.405Z,78.19
2017-11-18T02:48:00.381Z,77.90
2017-11-18T02:49:00.357Z,78.19
2017-11-18T02:50:00.342Z,78.19
2017-11-18T02:51:00.314Z,78.09
2017-11-18T02:52:00.302Z,77.33
2017-11-18T02:53:00.276Z,77.52
2017-11-18T02:54:00.253Z,77.81
2017-11-18T02:55:00.234Z,76.86
2017-11-18T02:56:00.215Z,76.76
2017-11-18T02:57:00.197Z,77.14
2017-11-18T02:58:00.174Z,77.33
2017-11-18T02:59:00.155Z,77.43
2017-11-18T03:00:00.133Z,77.52
2017-11-18T03:01:00.115Z,77.52
2017-11-18T03:02:00.098Z,77.62
2017-11-18T03:03:00.078Z,76.95
2017-11-18T03:04:00.047Z,76.95
2017-11-18T03:05:00.036Z,77.33
2017-11-18T03:06:00.006Z,77.05
2017-11-18T03:06:59.984Z,77.52
2017-11-18T03:07:59.964Z,77.52
2017-11-18T03:08:59.955Z,78.28
2017-11-18T03:09:59.933Z,77.90
2017-11-18T03:10:59.904Z,77.90
2017-11-18T03:11:59.883Z,77.90
2017-11-18T03:12:59.862Z,78.09
2017-11-18T03:13:59.840Z,77.52
2017-11-18T03:14:59.823Z,77.52
2017-11-18T03:15:59.805Z,77.33
2017-11-18T03:16:59.785Z,77.33
2017-11-18T03:17:59.757Z,77.52
2017-11-18T03:18:59.736Z,78.38
2017-11-18T03:19:59.714Z,78.00
2017-11-18T03:20:59.696Z,77.81
2017-11-18T03:21:59.672Z,79.14
2017-11-18T03:22:59.655Z,79.04
2017-11-18T03:23:59.629Z,78.75
2017-11-18T03:24:59.610Z,79.04
2017-11-18T03:25:59.597Z,78.66
2017-11-18T03:26:59.581Z,78.19
2017-11-18T03:27:59.553Z,77.43
2017-11-18T03:28:59.535Z,77.81
2017-11-18T03:29:59.515Z,77.43
2017-11-18T03:30:59.486Z,77.62
2017-11-18T03:31:59.474Z,77.52
2017-11-18T03:32:59.445Z,77.33
2017-11-18T03:33:59.424Z,77.52
2017-11-18T03:34:59.405Z,77.52
2017-11-18T03:35:59.380Z,77.52
2017-11-18T03:36:59.359Z,77.14
2017-11-18T03:37:59.345Z,76.76
2017-11-18T03:38:59.325Z,76.86
2017-11-18T03:39:59.304Z,76.29
2017-11-18T03:40:59.275Z,76.48
2017-11-18T03:41:59.253Z,76.29
2017-11-18T03:42:59.234Z,76.39
2017-11-18T03:43:59.213Z,76.20
2017-11-18T03:44:59.192Z,76.04
2017-11-18T03:45:59.173Z,76.23
2017-11-18T03:46:59.151Z,75.28
2017-11-18T03:47:59.133Z,76.04
2017-11-18T03:48:59.113Z,75.76
2017-11-18T03:49:59.093Z,75.85
2017-11-18T03:50:59.069Z,75.95
2017-11-18T03:51:59.054Z,75.38
2017-11-18T03:52:59.041Z,75.67
2017-11-18T03:53:59.012Z,76.14
2017-11-18T03:54:59.000Z,75.38
2017-11-18T03:55:58.967Z,74.81
2017-11-18T03:56:58.953Z,74.71
2017-11-18T03:57:58.930Z,74.62
2017-11-18T03:58:58.914Z,74.62
2017-11-18T03:59:58.894Z,74.52
2017-11-18T04:00:58.875Z,74.62
2017-11-18T04:01:58.843Z,74.24
2017-11-18T04:02:58.831Z,74.15
2017-11-18T04:03:58.803Z,73.86
2017-11-18T04:04:58.785Z,74.62
2017-11-18T04:05:58.764Z,74.81
2017-11-18T04:06:58.745Z,74.43
2017-11-18T04:07:58.724Z,74.62
2017-11-18T04:08:58.703Z,75.28
2017-11-18T04:09:58.684Z,75.28
2017-11-18T04:10:58.666Z,75.47
2017-11-18T04:11:58.644Z,74.24
2017-11-18T04:12:58.621Z,74.43
2017-11-18T04:13:58.605Z,74.33
2017-11-18T04:14:58.582Z,74.81
2017-11-18T04:15:58.563Z,74.62
2017-11-18T04:16:58.540Z,74.52
2017-11-18T04:17:58.524Z,74.81
2017-11-18T04:18:58.503Z,74.43
2017-11-18T04:19:58.479Z,74.24
2017-11-18T04:20:58.461Z,74.15
2017-11-18T04:21:58.437Z,75.28
2017-11-18T04:22:58.419Z,75.19
2017-11-18T04:23:58.399Z,75.19
2017-11-18T04:24:58.379Z,74.90
2017-11-18T04:25:58.362Z,75.19
2017-11-18T04:26:58.336Z,75.76
2017-11-18T04:27:58.329Z,75.62
2017-11-18T04:28:58.292Z,76.01
2017-11-18T04:29:58.272Z,75.91
2017-11-18T04:30:58.259Z,76.29
2017-11-18T04:31:58.236Z,75.81
2017-11-18T04:32:58.217Z,76.01
2017-11-18T04:33:58.195Z,75.72
2017-11-18T04:34:58.173Z,76.29
2017-11-18T04:35:58.150Z,76.10
2017-11-18T04:36:58.135Z,76.10
2017-11-18T04:37:58.115Z,76.76
2017-11-18T04:38:58.087Z,75.81
2017-11-18T04:39:58.073Z,76.67
2017-11-18T04:40:58.053Z,75.91
2017-11-18T04:41:58.026Z,76.01
2017-11-18T04:42:58.017Z,76.10
2017-11-18T04:43:57.987Z,76.01
2017-11-18T04:44:57.964Z,75.72
2017-11-18T04:45:57.946Z,75.47
2017-11-18T04:46:57.923Z,75.62
2017-11-18T04:47:57.902Z,75.24
2017-11-18T04:48:57.879Z,75.24
2017-11-18T04:49:57.870Z,76.01
2017-11-18T04:50:57.842Z,75.72
2017-11-18T04:51:57.819Z,76.20
2017-11-18T04:52:57.799Z,76.67
2017-11-18T04:53:57.776Z,76.67
2017-11-18T04:54:57.754Z,76.01
2017-11-18T04:55:57.737Z,76.48
2017-11-18T04:56:57.715Z,76.01
2017-11-18T04:57:57.696Z,76.04
2017-11-18T04:58:57.674Z,75.72
2017-11-18T04:59:57.653Z,76.29
2017-11-18T05:00:57.635Z,75.91
2017-11-18T05:01:57.628Z,76.67
2017-11-18T05:02:57.588Z,76.20
2017-11-18T05:03:57.574Z,76.48
2017-11-18T05:04:57.548Z,76.76
2017-11-18T05:05:57.569Z,76.39
2017-11-18T05:06:57.504Z,76.48
2017-11-18T05:07:57.484Z,76.67
2017-11-18T05:08:57.465Z,76.76
2017-11-18T05:09:57.443Z,76.95
2017-11-18T05:10:57.422Z,76.86
2017-11-18T05:11:57.397Z,77.52
2017-11-18T05:12:57.381Z,77.71
2017-11-18T05:13:57.359Z,76.86
2017-11-18T05:14:57.343Z,77.33
2017-11-18T05:15:57.324Z,77.05
2017-11-18T05:16:57.293Z,77.33
2017-11-18T05:17:57.273Z,76.86
2017-11-18T05:18:57.256Z,77.62
2017-11-18T05:19:57.230Z,77.33
2017-11-18T05:20:57.221Z,77.71
2017-11-18T05:21:57.188Z,77.33
2017-11-18T05:22:57.168Z,77.71
2017-11-18T05:23:57.146Z,76.86
2017-11-18T05:24:57.123Z,77.33
2017-11-18T05:25:57.103Z,77.52
2017-11-18T05:26:57.085Z,77.14
2017-11-18T05:27:57.064Z,77.05
2017-11-18T05:28:57.042Z,76.95
2017-11-18T05:29:57.024Z,77.43
2017-11-18T05:30:57.006Z,77.52
2017-11-18T05:31:56.979Z,77.05
2017-11-18T05:32:56.966Z,77.62
2017-11-18T05:33:56.944Z,77.14
2017-11-18T05:34:56.917Z,76.95
2017-11-18T05:35:56.892Z,76.29
2017-11-18T05:36:56.874Z,76.57
2017-11-18T05:37:56.852Z,76.95
2017-11-18T05:38:56.836Z,76.39
2017-11-18T05:39:56.812Z,76.67
2017-11-18T05:40:56.790Z,76.57
2017-11-18T05:41:56.770Z,76.48
2017-11-18T05:42:56.753Z,76.39
2017-11-18T05:43:56.730Z,76.86
2017-11-18T05:44:56.702Z,77.33
2017-11-18T05:45:56.682Z,76.67
2017-11-18T05:46:56.670Z,76.57
2017-11-18T05:47:56.643Z,76.42
2017-11-18T05:48:56.628Z,76.67
2017-11-18T05:49:56.600Z,76.10
2017-11-18T05:50:56.583Z,75.72
2017-11-18T05:51:56.567Z,76.48
2017-11-18T05:52:56.532Z,76.04
2017-11-18T05:53:56.514Z,76.23
2017-11-18T05:54:56.513Z,76.20
2017-11-18T05:55:56.474Z,76.10
2017-11-18T05:56:56.450Z,75.72
2017-11-18T05:57:56.431Z,75.62
2017-11-18T05:58:56.410Z,76.10
2017-11-18T05:59:56.388Z,76.01
2017-11-18T06:00:56.368Z,75.85
2017-11-18T06:01:56.348Z,76.04
2017-11-18T06:02:56.330Z,76.04
2017-11-18T06:03:56.314Z,75.67
2017-11-18T06:04:56.286Z,76.14
2017-11-18T06:05:56.262Z,75.34
2017-11-18T06:06:56.244Z,75.43
2017-11-18T06:07:56.222Z,76.01
2017-11-18T06:08:56.197Z,75.81
2017-11-18T06:09:56.186Z,75.91
2017-11-18T06:10:56.213Z,76.01
2017-11-18T06:11:56.134Z,75.72
2017-11-18T06:12:56.113Z,76.48
2017-11-18T06:13:56.092Z,75.91
2017-11-18T06:14:56.093Z,76.01
2017-11-18T06:15:56.058Z,75.43
2017-11-18T06:16:56.079Z,75.15
2017-11-18T06:17:56.010Z,76.61
2017-11-18T06:18:55.992Z,75.91
2017-11-18T06:19:55.966Z,76.48
2017-11-18T06:20:55.950Z,75.15
2017-11-18T06:21:55.925Z,75.85
2017-11-18T06:22:55.952Z,75.67
2017-11-18T06:23:55.882Z,75.47
2017-11-18T06:24:55.865Z,75.57
2017-11-18T06:25:55.838Z,75.53
2017-11-18T06:26:55.823Z,75.24
2017-11-18T06:27:55.812Z,76.39
2017-11-18T06:28:55.834Z,75.67
2017-11-18T06:29:55.757Z,76.10
2017-11-18T06:30:55.740Z,75.91
2017-11-18T06:31:55.717Z,75.34
2017-11-18T06:32:55.710Z,76.01
2017-11-18T06:33:55.672Z,75.81
2017-11-18T06:34:55.662Z,75.34
2017-11-18T06:35:55.633Z,76.20
2017-11-18T06:36:55.668Z,76.14
2017-11-18T06:37:55.588Z,75.28
2017-11-18T06:38:55.598Z,75.47
2017-11-18T06:39:55.545Z,74.71
2017-11-18T06:40:55.622Z,74.52
2017-11-18T06:41:55.502Z,74.81
2017-11-18T06:42:55.540Z,74.43
2017-11-18T06:43:55.474Z,74.33
2017-11-18T06:44:55.451Z,74.90
2017-11-18T06:45:55.422Z,74.62
2017-11-18T06:46:55.456Z,74.71
2017-11-18T06:47:55.381Z,74.52
2017-11-18T06:48:55.372Z,74.52
2017-11-18T06:49:55.344Z,74.62
2017-11-18T06:50:55.316Z,74.43
2017-11-18T06:51:55.297Z,74.33
2017-11-18T06:52:55.279Z,73.76
2017-11-18T06:53:55.253Z,73.76
2017-11-18T06:54:55.270Z,73.67
2017-11-18T06:55:55.218Z,73.96
2017-11-18T06:56:55.245Z,74.05
2017-11-18T06:57:55.171Z,73.86
2017-11-18T06:58:55.157Z,74.15
2017-11-18T06:59:55.137Z,73.86
2017-11-18T07:00:55.111Z,73.67
2017-11-18T07:01:55.094Z,73.76
2017-11-18T07:02:55.082Z,73.86
2017-11-18T07:03:55.052Z,74.15
2017-11-18T07:04:55.038Z,75.85
2017-11-18T07:05:55.005Z,77.41
2017-11-18T07:06:54.985Z,76.08
2017-11-18T07:07:54.966Z,75.84
2017-11-18T07:08:54.944Z,73.84
2017-11-18T07:09:54.920Z,73.08
2017-11-18T07:10:54.900Z,72.32
2017-11-18T07:11:54.900Z,70.57
2017-11-18T07:12:54.859Z,70.10
2017-11-18T07:13:54.841Z,70.95
2017-11-18T07:14:54.835Z,71.43
2017-11-18T07:15:54.804Z,70.95
2017-11-18T07:16:54.774Z,71.86
2017-11-18T07:17:54.754Z,72.63
2017-11-18T07:18:54.735Z,73.10
2017-11-18T07:19:54.714Z,73.00
2017-11-18T07:20:54.693Z,73.00
2017-11-18T07:21:54.675Z,72.81
2017-11-18T07:22:54.654Z,72.34
2017-11-18T07:23:54.635Z,71.96
2017-11-18T07:24:54.613Z,72.25
2017-11-18T07:25:54.591Z,72.25
2017-11-18T07:26:54.570Z,72.34
2017-11-18T07:27:54.555Z,72.81
2017-11-18T07:28:54.531Z,72.63
2017-11-18T07:29:54.507Z,72.72
2017-11-18T07:30:54.491Z,72.72
2017-11-18T07:31:54.476Z,72.81
2017-11-18T07:32:54.445Z,72.44
2017-11-18T07:33:54.425Z,72.81
2017-11-18T07:34:54.403Z,72.63
2017-11-18T07:35:54.387Z,73.00
2017-11-18T07:36:54.362Z,73.00
2017-11-18T07:37:54.345Z,73.00
2017-11-18T07:38:54.324Z,72.81
2017-11-18T07:39:54.303Z,72.91
2017-11-18T07:40:54.277Z,72.63
2017-11-18T07:41:54.273Z,72.81
2017-11-18T07:42:54.236Z,72.81
2017-11-18T07:43:54.225Z,72.81
2017-11-18T07:44:54.193Z,72.72
2017-11-18T07:45:54.174Z,72.81
2017-11-18T07:46:54.156Z,72.72
2017-11-18T07:47:54.142Z,72.72
2017-11-18T07:48:54.117Z,73.00
2017-11-18T07:49:54.095Z,72.63
2017-11-18T07:50:54.075Z,72.72
2017-11-18T07:51:54.060Z,72.63
2017-11-18T07:52:54.034Z,72.63
2017-11-18T07:53:54.017Z,72.63
2017-11-18T07:54:54.002Z,72.81
2017-11-18T07:55:53.972Z,72.44
2017-11-18T07:56:53.949Z,72.25
2017-11-18T07:57:53.924Z,72.25
2017-11-18T07:58:53.905Z,72.44
2017-11-18T07:59:53.884Z,72.63
2017-11-18T08:00:53.865Z,72.53
2017-11-18T08:01:53.850Z,72.81
2017-11-18T08:02:53.821Z,73.00
2017-11-18T08:03:53.808Z,72.53
2017-11-18T08:04:53.787Z,72.81
2017-11-18T08:05:53.767Z,72.72
2017-11-18T08:06:53.754Z,72.53
2017-11-18T08:07:53.726Z,72.19
2017-11-18T08:08:53.710Z,72.06
2017-11-18T08:09:53.674Z,72.06
2017-11-18T08:10:53.659Z,72.09
2017-11-18T08:11:53.644Z,71.81
2017-11-18T08:12:53.629Z,72.06
2017-11-18T08:13:53.592Z,71.67
2017-11-18T08:14:53.574Z,72.09
2017-11-18T08:15:53.554Z,71.71
2017-11-18T08:16:53.529Z,71.77
2017-11-18T08:17:53.515Z,71.58
2017-11-18T08:18:53.494Z,71.77
2017-11-18T08:19:53.469Z,71.81
2017-11-18T08:20:53.449Z,72.09
2017-11-18T08:21:53.435Z,72.09
2017-11-18T08:22:53.415Z,72.00
2017-11-18T08:23:53.396Z,72.15
2017-11-18T08:24:53.372Z,72.00
2017-11-18T08:25:53.348Z,71.81
2017-11-18T08:26:53.333Z,71.33
2017-11-18T08:27:53.307Z,71.81
2017-11-18T08:28:53.297Z,72.15
2017-11-18T08:29:53.264Z,72.06
2017-11-18T08:30:53.248Z,71.67
2017-11-18T08:31:53.246Z,71.77
2017-11-18T08:32:53.204Z,71.58
2017-11-18T08:33:53.181Z,71.58
2017-11-18T08:34:53.166Z,72.06
2017-11-18T08:35:53.143Z,72.34
2017-11-18T08:36:53.119Z,72.15
2017-11-18T08:37:53.106Z,72.53
2017-11-18T08:38:53.078Z,72.53
2017-11-18T08:39:53.061Z,72.72
2017-11-18T08:40:53.043Z,72.81
2017-11-18T08:41:53.020Z,72.15
2017-11-18T08:42:53.005Z,72.06
2017-11-18T08:43:52.987Z,72.06
2017-11-18T08:44:52.966Z,71.90
2017-11-18T08:45:52.934Z,71.90
2017-11-18T08:46:52.918Z,71.71
2017-11-18T08:47:52.906Z,71.81
2017-11-18T08:48:52.876Z,71.90
2017-11-18T08:49:52.875Z,72.19
2017-11-18T08:50:52.836Z,72.09
2017-11-18T08:51:52.818Z,71.71
2017-11-18T08:52:52.791Z,71.23
2017-11-18T08:53:52.770Z,71.23
2017-11-18T08:54:52.756Z,71.43
2017-11-18T08:55:52.732Z,70.95
2017-11-18T08:56:52.728Z,71.43
2017-11-18T08:57:52.706Z,71.14
2017-11-18T08:58:52.667Z,71.33
2017-11-18T08:59:52.643Z,71.33
2017-11-18T09:00:52.626Z,71.04
2017-11-18T09:01:52.605Z,71.43
2017-11-18T09:02:52.591Z,71.14
2017-11-18T09:03:52.562Z,71.33
2017-11-18T09:04:52.548Z,71.33
2017-11-18T09:05:52.521Z,71.43
2017-11-18T09:06:52.505Z,71.43
2017-11-18T09:07:52.483Z,70.95
2017-11-18T09:08:52.465Z,70.57
2017-11-18T09:09:52.442Z,70.57
2017-11-18T09:10:52.421Z,70.95
2017-11-18T09:11:52.397Z,71.14
2017-11-18T09:12:52.386Z,71.43
2017-11-18T09:13:52.356Z,70.67
2017-11-18T09:14:52.344Z,71.04
2017-11-18T09:15:52.319Z,70.38
2017-11-18T09:16:52.295Z,70.48
2017-11-18T09:17:52.275Z,70.29
2017-11-18T09:18:52.260Z,70.10
2017-11-18T09:19:52.234Z,70.48
2017-11-18T09:20:52.216Z,70.48
2017-11-18T09:21:52.194Z,69.71
2017-11-18T09:22:52.173Z,69.62
2017-11-18T09:23:52.152Z,70.19
2017-11-18T09:24:52.136Z,70.48
2017-11-18T09:25:52.110Z,69.43
2017-11-18T09:26:52.093Z,69.15
2017-11-18T09:27:52.078Z,69.53
2017-11-18T09:28:52.052Z,69.81
2017-11-18T09:29:52.035Z,69.81
2017-11-18T09:30:52.015Z,69.53
2017-11-18T09:31:51.992Z,69.34
2017-11-18T09:32:52.025Z,69.43
2017-11-18T09:33:51.944Z,69.81
2017-11-18T09:34:51.924Z,69.71
2017-11-18T09:35:51.903Z,69.71
2017-11-18T09:36:51.883Z,69.71
2017-11-18T09:37:51.869Z,69.62
2017-11-18T09:38:51.842Z,69.34
2017-11-18T09:39:51.825Z,69.34
2017-11-18T09:40:51.800Z,69.24
2017-11-18T09:41:51.786Z,69.24
2017-11-18T09:42:51.763Z,69.15
2017-11-18T09:43:51.754Z,69.05
2017-11-18T09:44:51.722Z,69.53
2017-11-18T09:45:51.703Z,69.91
2017-11-18T09:46:51.682Z,69.62
2017-11-18T09:47:51.662Z,70.48
2017-11-18T09:48:51.640Z,70.48
2017-11-18T09:49:51.620Z,69.43
2017-11-18T09:50:51.601Z,69.43
2017-11-18T09:51:51.611Z,70.29
2017-11-18T09:52:51.559Z,70.67
2017-11-18T09:53:51.533Z,69.53
2017-11-18T09:54:51.517Z,69.43
2017-11-18T09:55:51.497Z,69.43
2017-11-18T09:56:51.475Z,69.81
2017-11-18T09:57:51.454Z,69.62
2017-11-18T09:58:51.434Z,70.29
2017-11-18T09:59:51.419Z,70.19
2017-11-18T10:00:51.403Z,70.48
2017-11-18T10:01:51.374Z,70.48
2017-11-18T10:02:51.352Z,70.29
2017-11-18T10:03:51.335Z,70.48
2017-11-18T10:04:51.310Z,70.29
2017-11-18T10:05:51.292Z,69.91
2017-11-18T10:06:51.274Z,69.24
2017-11-18T10:07:51.249Z,69.24
2017-11-18T10:08:51.232Z,69.34
2017-11-18T10:09:51.212Z,69.53
2017-11-18T10:10:51.193Z,69.62
2017-11-18T10:11:51.170Z,69.24
2017-11-18T10:12:51.147Z,69.24
2017-11-18T10:13:51.133Z,69.46
2017-11-18T10:14:51.109Z,69.24
2017-11-18T10:15:51.088Z,69.34
2017-11-18T10:16:51.068Z,69.34
2017-11-18T10:17:51.068Z,69.15
2017-11-18T10:18:51.034Z,69.15
2017-11-18T10:19:51.005Z,69.24
2017-11-18T10:20:50.997Z,68.99
2017-11-18T10:21:50.963Z,69.15
2017-11-18T10:22:50.944Z,69.24
2017-11-18T10:23:50.927Z,69.43
2017-11-18T10:24:50.901Z,69.18
2017-11-18T10:25:50.883Z,68.96
2017-11-18T10:26:50.867Z,69.46
2017-11-18T10:27:50.853Z,69.18
2017-11-18T10:28:50.824Z,69.37
2017-11-18T10:29:50.803Z,68.90
2017-11-18T10:30:50.781Z,69.37
2017-11-18T10:31:50.764Z,69.53
2017-11-18T10:32:50.752Z,70.51
2017-11-18T10:33:50.724Z,70.51
2017-11-18T10:34:50.705Z,70.67
2017-11-18T10:35:50.681Z,69.91
2017-11-18T10:36:50.663Z,70.76
2017-11-18T10:37:50.644Z,70.61
2017-11-18T10:38:50.622Z,71.27
2017-11-18T10:39:50.598Z,71.27
2017-11-18T10:40:50.576Z,70.89
2017-11-18T10:41:50.558Z,70.67
2017-11-18T10:42:50.537Z,70.89
2017-11-18T10:43:50.525Z,70.13
2017-11-18T10:44:50.511Z,70.23
2017-11-18T10:45:50.507Z,70.99
2017-11-18T10:46:50.465Z,70.51
2017-11-18T10:47:50.442Z,70.51
2017-11-18T10:48:50.422Z,70.10
2017-11-18T10:49:50.397Z,70.86
2017-11-18T10:50:50.377Z,70.70
2017-11-18T10:51:50.371Z,70.99
2017-11-18T10:52:50.333Z,70.89
2017-11-18T10:53:50.317Z,70.99
2017-11-18T10:54:50.300Z,70.89
2017-11-18T10:55:50.280Z,70.99
2017-11-18T10:56:50.255Z,70.23
2017-11-18T10:57:50.233Z,70.23
2017-11-18T10:58:50.220Z,70.48
2017-11-18T10:59:50.198Z,70.99
2017-11-18T11:00:50.181Z,71.08
2017-11-18T11:01:50.154Z,70.57
2017-11-18T11:02:50.134Z,70.89
2017-11-18T11:03:50.114Z,71.14
2017-11-18T11:04:50.094Z,70.89
2017-11-18T11:05:50.070Z,70.70
2017-11-18T11:06:50.049Z,70.61
2017-11-18T11:07:50.030Z,70.99
2017-11-18T11:08:50.016Z,70.51
2017-11-18T11:09:49.993Z,70.89
2017-11-18T11:10:49.973Z,71.08
2017-11-18T11:11:49.952Z,71.14
2017-11-18T11:12:49.936Z,70.99
2017-11-18T11:13:49.916Z,71.08
2017-11-18T11:14:49.888Z,70.79
2017-11-18T11:15:49.876Z,70.67
2017-11-18T11:16:49.847Z,70.99
2017-11-18T11:17:49.829Z,70.42
2017-11-18T11:18:49.810Z,70.70
2017-11-18T11:19:49.799Z,71.62
2017-11-18T11:20:49.765Z,71.56
2017-11-18T11:21:49.749Z,71.56
2017-11-18T11:22:49.726Z,70.89
2017-11-18T11:23:49.701Z,70.79
2017-11-18T11:24:49.683Z,70.79
2017-11-18T11:25:49.664Z,70.51
2017-11-18T11:26:49.655Z,71.56
2017-11-18T11:27:49.629Z,71.37
2017-11-18T11:28:49.603Z,71.08
2017-11-18T11:29:49.584Z,71.46
2017-11-18T11:30:49.572Z,70.89
2017-11-18T11:31:49.545Z,71.37
2017-11-18T11:32:49.528Z,70.79
2017-11-18T11:33:49.507Z,70.51
2017-11-18T11:34:49.481Z,70.04
2017-11-18T11:35:49.464Z,70.13
2017-11-18T11:36:49.445Z,69.79
2017-11-18T11:37:49.420Z,68.84
2017-11-18T11:38:49.398Z,67.98
2017-11-18T11:39:49.382Z,67.16
2017-11-18T11:40:49.359Z,66.33
2017-11-18T11:41:49.340Z,64.43
2017-11-18T11:42:49.325Z,63.29
2017-11-18T11:43:49.306Z,63.96
2017-11-18T11:44:49.289Z,64.40
2017-11-18T11:45:49.268Z,64.72
2017-11-18T11:46:49.254Z,64.21
2017-11-18T11:47:49.236Z,64.53
2017-11-18T11:48:49.209Z,63.67
2017-11-18T11:49:49.193Z,64.24
2017-11-18T11:50:49.175Z,65.06
2017-11-18T11:51:49.163Z,66.49
2017-11-18T11:52:49.137Z,65.54
2017-11-18T11:53:49.137Z,65.54
2017-11-18T11:54:49.114Z,65.16
2017-11-18T11:55:49.085Z,65.29
2017-11-18T11:56:49.071Z,65.54
2017-11-18T11:57:49.055Z,65.45
2017-11-18T11:58:49.026Z,65.83
2017-11-18T11:59:49.008Z,66.11
2017-11-18T12:00:48.988Z,65.73
2017-11-18T12:01:48.975Z,65.73
2017-11-18T12:02:48.955Z,66.39
2017-11-18T12:03:48.934Z,66.39
2017-11-18T12:04:48.916Z,66.68
2017-11-18T12:05:48.904Z,66.68
2017-11-18T12:06:48.881Z,66.59
2017-11-18T12:07:48.859Z,67.07
2017-11-18T12:08:48.843Z,67.32
2017-11-18T12:09:48.830Z,67.35
2017-11-18T12:10:48.804Z,67.69
2017-11-18T12:11:48.784Z,68.27
2017-11-18T12:12:48.765Z,68.36
2017-11-18T12:13:48.746Z,68.36
2017-11-18T12:14:48.729Z,68.07
2017-11-18T12:15:48.715Z,69.02
2017-11-18T12:16:48.691Z,68.74
2017-11-18T12:17:48.667Z,68.55
2017-11-18T12:18:48.664Z,69.12
2017-11-18T12:19:48.633Z,68.84
2017-11-18T12:20:48.627Z,69.41
2017-11-18T12:21:48.595Z,69.41
2017-11-18T12:22:48.573Z,69.79
2017-11-18T12:23:48.555Z,70.26
2017-11-18T12:24:48.534Z,70.36
2017-11-18T12:25:48.517Z,70.26
2017-11-18T12:26:48.494Z,70.17
2017-11-18T12:27:48.480Z,70.26
2017-11-18T12:28:48.462Z,70.26
2017-11-18T12:29:48.488Z,70.45
2017-11-18T12:30:48.427Z,70.54
2017-11-18T12:31:48.455Z,71.31
2017-11-18T12:32:48.378Z,70.74
2017-11-18T12:33:48.409Z,71.02
2017-11-18T12:34:48.343Z,71.88
2017-11-18T12:35:48.374Z,71.31
2017-11-18T12:36:48.305Z,71.94
2017-11-18T12:37:48.281Z,72.03
2017-11-18T12:38:48.260Z,71.94
2017-11-18T12:39:48.246Z,72.32
2017-11-18T12:40:48.221Z,72.32
2017-11-18T12:41:48.204Z,72.35
2017-11-18T12:42:48.183Z,72.45
2017-11-18T12:43:48.164Z,72.79
2017-11-18T12:44:48.144Z,73.18
2017-11-18T12:45:48.183Z,73.36
2017-11-18T12:46:48.111Z,73.88
2017-11-18T12:47:48.133Z,74.03
2017-11-18T12:48:48.068Z,74.12
2017-11-18T12:49:48.046Z,73.97
2017-11-18T12:50:48.045Z,74.03
2017-11-18T12:51:48.054Z,73.97